Archdale, North Carolina
Current Conditions -  °F | °C
As of 6:54 AM on Thursday 18 Dec 2014 (Local Time) from KGSO Reporting Station
Broken Clouds Broken Clouds  
Wind Chill:   Ceiling: 15000
Heat Index:   Visibility: 10mi
Dew Point: -4°   Wind: 5mph
Humidity: 59%   Direction: 30°NNE
Pressure: 30.14"   Gusts: NA
Location:  35.9136°N, 79.9465°W
Report Text: KGSO 181154Z 03004KT 10SM BKN150 03/M04 A3014 RMK AO2 SLP207 T00281044 10056 20028 53013
Loading
Personal Weather Stations






























Interactive Weather Map New forecast layout! Learn more

10-Day Weather Forecast

Advertisements
Track Severe Weather on mobile